Roans Prairie, Texas
Current Conditions -  °F | °C
As of 11:53 PM on Wednesday 22 Oct 2014 (Local Time) from KUTS Reporting Station
Clear Clear  
Wind Chill: 63°   Ceiling: Unl
Heat Index: 63°   Visibility: 10mi
Dew Point: 56°   Wind: 5mph
Humidity: 78%   Direction: 90°E
Pressure: 30.09"   Gusts: NA
Location:  30.58°N, 95.94°W
Report Text: KUTS 230453Z AUTO 09004KT 10SM CLR 17/13 A3009 RMK AO2 SLP187 T01720133
Loading
Personal Weather Stations






























Interactive Weather Map
Tropical Storm Tracking
New forecast layout! Learn more

10-Day Weather Forecast

Advertisements
Track Severe Weather on mobile